Wetterdaten: Woche 12.05.08 - 18.05.08 (KW20)
Datum Zeit Temperatur Luftfeuchte Luftdruck Niederschlag Wind Richtung Sonnenschein Solar Taupunkt Windchill Windben
12.05.2008 00:00 11.0 C 84 % 1015.0 hPa 0.0 l/m 2.5 km/h (1 Bft) O-SO 0.00 h 0 W/m 8.5 C 11.0 C 3.9 km/h (1 Bft)
12.05.2008 01:00 9.7 C 89 % 1015.0 hPa 0.0 l/m 2.4 km/h (1 Bft) O-SO 0.00 h 0 W/m 8.0 C 9.5 C 3.4 km/h (1 Bft)
12.05.2008 02:00 9.1 C 90 % 1015.0 hPa 0.0 l/m 1.7 km/h (1 Bft) O-SO 0.00 h 0 W/m 7.6 C 9.1 C 2.9 km/h (1 Bft)
12.05.2008 03:00 8.5 C 93 % 1015.0 hPa 0.0 l/m 1.4 km/h (1 Bft) O-SO 0.00 h 0 W/m 7.4 C 8.5 C 2.6 km/h (1 Bft)
12.05.2008 04:00 7.9 C 93 % 1015.1 hPa 0.0 l/m 1.8 km/h (1 Bft) O-SO 0.00 h 0 W/m 6.9 C 7.9 C 3.2 km/h (1 Bft)
12.05.2008 05:00 7.6 C 95 % 1015.4 hPa 0.0 l/m 0.6 km/h (0 Bft) O-SO 0.00 h 5 W/m 6.9 C 7.6 C 1.5 km/h (1 Bft)
12.05.2008 06:00 7.3 C 96 % 1015.9 hPa 0.0 l/m 0.7 km/h (0 Bft) O-SO 0.03 h 28 W/m 6.7 C 7.3 C 1.8 km/h (1 Bft)
12.05.2008 07:00 8.7 C 97 % 1016.3 hPa 0.0 l/m 0.8 km/h (0 Bft) O-SO 0.00 h 77 W/m 8.3 C 8.7 C 2.3 km/h (1 Bft)
12.05.2008 08:00 10.2 C 94 % 1016.5 hPa 0.0 l/m 1.6 km/h (1 Bft) O-SO 0.50 h 242 W/m 9.3 C 10.2 C 3.3 km/h (1 Bft)
12.05.2008 09:00 13.0 C 82 % 1016.4 hPa 0.0 l/m 1.7 km/h (1 Bft) S-SO 1.00 h 486 W/m 10.1 C 13.0 C 4.1 km/h (1 Bft)
12.05.2008 10:00 15.9 C 73 % 1016.0 hPa 0.0 l/m 1.7 km/h (1 Bft) W-SW 1.00 h 644 W/m 11.1 C 15.9 C 3.8 km/h (1 Bft)
12.05.2008 11:00 18.2 C 63 % 1015.3 hPa 0.0 l/m 2.9 km/h (1 Bft) W 1.00 h 765 W/m 11.1 C 18.2 C 5.1 km/h (1 Bft)
12.05.2008 12:00 19.9 C 56 % 1014.8 hPa 0.0 l/m 3.8 km/h (1 Bft) W-NW 1.00 h 839 W/m 11.0 C 19.9 C 6.4 km/h (2 Bft)
12.05.2008 13:00 21.7 C 49 % 1014.3 hPa 0.0 l/m 2.8 km/h (1 Bft) W-NW 1.00 h 871 W/m 10.5 C 21.7 C 5.1 km/h (1 Bft)
12.05.2008 14:00 23.2 C 40 % 1013.7 hPa 0.0 l/m 3.8 km/h (1 Bft) W-NW 1.00 h 847 W/m 9.0 C 23.2 C 6.7 km/h (2 Bft)
12.05.2008 15:00 23.6 C 35 % 1013.1 hPa 0.0 l/m 3.6 km/h (1 Bft) O-SO 1.00 h 771 W/m 7.1 C 23.6 C 6.6 km/h (2 Bft)
12.05.2008 16:00 24.0 C 30 % 1012.4 hPa 0.0 l/m 6.1 km/h (2 Bft) O-SO 1.00 h 643 W/m 5.2 C 24.0 C 10.4 km/h (2 Bft)
12.05.2008 17:00 23.7 C 29 % 1012.3 hPa 0.0 l/m 7.6 km/h (2 Bft) O-SO 1.00 h 490 W/m 4.4 C 23.7 C 12.1 km/h (2 Bft)
12.05.2008 18:00 23.3 C 29 % 1012.3 hPa 0.0 l/m 6.5 km/h (2 Bft) O-SO 0.82 h 305 W/m 4.0 C 23.3 C 10.9 km/h (2 Bft)
12.05.2008 19:00 22.5 C 32 % 1012.2 hPa 0.0 l/m 1.7 km/h (1 Bft) O 0.55 h 138 W/m 5.0 C 22.5 C 4.0 km/h (1 Bft)
12.05.2008 20:00 20.5 C 42 % 1012.2 hPa 0.0 l/m 0.9 km/h (0 Bft) SO 0.17 h 26 W/m 7.0 C 20.5 C 2.2 km/h (1 Bft)
12.05.2008 21:00 18.1 C 51 % 1012.5 hPa 0.0 l/m 0.6 km/h (0 Bft) O-SO 0.00 h 0 W/m 7.8 C 18.1 C 2.0 km/h (1 Bft)
12.05.2008 22:00 15.9 C 59 % 1012.8 hPa 0.0 l/m 1.9 km/h (1 Bft) SO 0.00 h 0 W/m 7.9 C 15.9 C 3.2 km/h (1 Bft)
12.05.2008 23:00 14.3 C 66 % 1012.9 hPa 0.0 l/m 0.7 km/h (0 Bft) O-SO 0.00 h 0 W/m 8.0 C 14.3 C 1.6 km/h (1 Bft)
13.05.2008 00:00 12.8 C 73 % 1013.0 hPa 0.0 l/m 0.4 km/h (0 Bft) O-SO 0.00 h 0 W/m 7.9 C 12.8 C 1.1 km/h (1 Bft)
13.05.2008 01:00 11.9 C 75 % 1013.0 hPa 0.0 l/m 0.5 km/h (0 Bft) O-SO 0.00 h 0 W/m 7.6 C 11.9 C 1.8 km/h (1 Bft)
13.05.2008 02:00 10.7 C 79 % 1012.9 hPa 0.0 l/m 3.1 km/h (1 Bft) O 0.00 h 0 W/m 7.2 C 10.7 C 4.3 km/h (1 Bft)
13.05.2008 03:00 9.8 C 83 % 1013.0 hPa 0.0 l/m 0.5 km/h (0 Bft) O-SO 0.00 h 0 W/m 7.0 C 9.8 C 1.1 km/h (1 Bft)
13.05.2008 04:00 8.9 C 86 % 1013.2 hPa 0.0 l/m 1.8 km/h (1 Bft) O-SO 0.00 h 0 W/m 6.7 C 8.9 C 2.7 km/h (1 Bft)
13.05.2008 05:00 8.7 C 87 % 1013.3 hPa 0.0 l/m 0.2 km/h (0 Bft) O-SO 0.00 h 6 W/m 6.6 C 8.7 C 0.6 km/h (0 Bft)
13.05.2008 06:00 8.2 C 88 % 1013.5 hPa 0.0 l/m 0.0 km/h (0 Bft) N 0.00 h 19 W/m 6.4 C 8.2 C 0.5 km/h (0 Bft)
13.05.2008 07:00 10.0 C 83 % 1013.7 hPa 0.0 l/m 0.0 km/h (0 Bft) N 0.70 h 144 W/m 7.2 C 10.0 C 0.4 km/h (0 Bft)
13.05.2008 08:00 12.8 C 72 % 1013.5 hPa 0.0 l/m 0.2 km/h (0 Bft) O-SO 1.00 h 331 W/m 7.9 C 12.8 C 0.9 km/h (0 Bft)
13.05.2008 09:00 15.5 C 63 % 1013.4 hPa 0.0 l/m 1.1 km/h (1 Bft) O-SO 1.00 h 503 W/m 8.3 C 15.5 C 2.8 km/h (1 Bft)
13.05.2008 10:00 18.5 C 50 % 1013.0 hPa 0.0 l/m 2.5 km/h (1 Bft) W-NW 1.00 h 656 W/m 8.0 C 18.5 C 4.4 km/h (1 Bft)
13.05.2008 11:00 20.8 C 45 % 1012.7 hPa 0.0 l/m 2.8 km/h (1 Bft) W-NW 1.00 h 776 W/m 8.4 C 20.8 C 5.4 km/h (1 Bft)
13.05.2008 12:00 22.3 C 38 % 1012.3 hPa 0.0 l/m 2.2 km/h (1 Bft) SO 1.00 h 854 W/m 7.2 C 22.3 C 4.9 km/h (1 Bft)
13.05.2008 13:00 23.7 C 30 % 1011.8 hPa 0.0 l/m 3.7 km/h (1 Bft) W 1.00 h 878 W/m 5.1 C 23.7 C 6.1 km/h (2 Bft)
13.05.2008 14:00 24.7 C 29 % 1011.1 hPa 0.0 l/m 3.0 km/h (1 Bft) O-SO 1.00 h 855 W/m 5.5 C 24.7 C 6.0 km/h (2 Bft)
13.05.2008 15:00 25.0 C 29 % 1010.5 hPa 0.0 l/m 3.7 km/h (1 Bft) SO 1.00 h 782 W/m 5.9 C 25.0 C 6.6 km/h (2 Bft)
13.05.2008 16:00 25.4 C 24 % 1010.0 hPa 0.0 l/m 4.9 km/h (1 Bft) SO 1.00 h 660 W/m 3.5 C 25.4 C 8.0 km/h (2 Bft)
13.05.2008 17:00 24.9 C 26 % 1009.8 hPa 0.0 l/m 5.1 km/h (1 Bft) O-SO 1.00 h 517 W/m 4.1 C 24.9 C 8.8 km/h (2 Bft)
13.05.2008 18:00 25.2 C 28 % 1009.5 hPa 0.0 l/m 5.4 km/h (1 Bft) N 1.00 h 357 W/m 5.5 C 25.2 C 10.6 km/h (2 Bft)
13.05.2008 19:00 23.1 C 36 % 1009.5 hPa 0.0 l/m 6.4 km/h (2 Bft) N 0.97 h 155 W/m 7.2 C 23.1 C 12.6 km/h (3 Bft)
13.05.2008 20:00 20.9 C 42 % 1010.1 hPa 0.0 l/m 1.3 km/h (1 Bft) O 0.20 h 31 W/m 7.6 C 20.9 C 3.8 km/h (1 Bft)
13.05.2008 21:00 17.6 C 56 % 1010.6 hPa 0.0 l/m 1.0 km/h (0 Bft) O 0.00 h 0 W/m 8.7 C 17.6 C 2.4 km/h (1 Bft)
13.05.2008 22:00 15.6 C 63 % 1011.0 hPa 0.0 l/m 1.4 km/h (1 Bft) O 0.00 h 0 W/m 8.5 C 15.6 C 2.7 km/h (1 Bft)
13.05.2008 23:00 14.4 C 68 % 1011.3 hPa 0.0 l/m 1.9 km/h (1 Bft) O 0.00 h 0 W/m 8.5 C 14.4 C 3.2 km/h (1 Bft)
14.05.2008 00:00 13.0 C 73 % 1011.6 hPa 0.0 l/m 1.4 km/h (1 Bft) O 0.00 h 0 W/m 8.4 C 13.0 C 2.9 km/h (1 Bft)
14.05.2008 01:00 12.0 C 76 % 1011.7 hPa 0.0 l/m 1.9 km/h (1 Bft) O 0.00 h 0 W/m 8.0 C 12.0 C 3.1 km/h (1 Bft)
14.05.2008 02:00 11.1 C 79 % 1011.9 hPa 0.0 l/m 0.5 km/h (0 Bft) O 0.00 h 0 W/m 7.7 C 11.1 C 1.5 km/h (1 Bft)
14.05.2008 03:00 10.0 C 83 % 1012.0 hPa 0.0 l/m 1.4 km/h (1 Bft) O 0.00 h 0 W/m 7.3 C 10.0 C 2.5 km/h (1 Bft)
14.05.2008 04:00 9.5 C 85 % 1012.2 hPa 0.0 l/m 1.1 km/h (1 Bft) O 0.00 h 0 W/m 7.1 C 9.5 C 2.2 km/h (1 Bft)
14.05.2008 05:00 8.7 C 88 % 1012.6 hPa 0.0 l/m 0.5 km/h (0 Bft) O 0.00 h 6 W/m 6.8 C 8.7 C 1.3 km/h (1 Bft)
14.05.2008 06:00 8.6 C 87 % 1013.0 hPa 0.0 l/m 2.5 km/h (1 Bft) O 0.05 h 25 W/m 6.5 C 8.5 C 4.0 km/h (1 Bft)
14.05.2008 07:00 10.6 C 82 % 1013.3 hPa 0.0 l/m 1.6 km/h (1 Bft) O 0.72 h 146 W/m 7.5 C 10.6 C 2.6 km/h (1 Bft)
14.05.2008 08:00 13.0 C 74 % 1013.3 hPa 0.0 l/m 0.2 km/h (0 Bft) O 0.83 h 297 W/m 8.4 C 13.0 C 0.9 km/h (0 Bft)
14.05.2008 09:00 15.6 C 66 % 1013.4 hPa 0.0 l/m 1.1 km/h (0 Bft) O 1.00 h 484 W/m 9.2 C 15.6 C 2.6 km/h (1 Bft)
14.05.2008 10:00 18.3 C 58 % 1013.2 hPa 0.0 l/m 2.0 km/h (1 Bft) O-SO 1.00 h 637 W/m 9.7 C 18.3 C 4.5 km/h (1 Bft)
14.05.2008 11:00 20.4 C 51 % 1012.9 hPa 0.0 l/m 1.6 km/h (1 Bft) S-SO 1.00 h 754 W/m 9.9 C 20.4 C 4.1 km/h (1 Bft)
14.05.2008 12:00 22.4 C 45 % 1012.3 hPa 0.0 l/m 2.8 km/h (1 Bft) W 1.00 h 831 W/m 9.7 C 22.4 C 4.8 km/h (1 Bft)
14.05.2008 13:00 24.0 C 37 % 1011.6 hPa 0.0 l/m 2.7 km/h (1 Bft) W-NW 1.00 h 862 W/m 8.5 C 24.0 C 5.0 km/h (1 Bft)
14.05.2008 14:00 25.3 C 32 % 1011.0 hPa 0.0 l/m 4.7 km/h (1 Bft) W-NW 0.97 h 837 W/m 7.3 C 25.3 C 7.4 km/h (2 Bft)
14.05.2008 15:00 24.8 C 32 % 1010.3 hPa 0.0 l/m 2.8 km/h (1 Bft) O-SO 0.67 h 655 W/m 6.8 C 24.8 C 5.4 km/h (1 Bft)
14.05.2008 16:00 25.1 C 29 % 1009.8 hPa 0.0 l/m 2.2 km/h (1 Bft) NO 0.65 h 504 W/m 5.7 C 25.1 C 4.5 km/h (1 Bft)
14.05.2008 17:00 25.9 C 28 % 1009.3 hPa 0.0 l/m 3.4 km/h (1 Bft) W 0.97 h 472 W/m 5.9 C 25.9 C 5.7 km/h (1 Bft)
14.05.2008 18:00 24.8 C 30 % 1009.2 hPa 0.0 l/m 2.7 km/h (1 Bft) W-NW 0.22 h 193 W/m 6.1 C 24.8 C 4.8 km/h (1 Bft)
14.05.2008 19:00 23.3 C 41 % 1009.1 hPa 0.0 l/m 2.9 km/h (1 Bft) W 0.25 h 104 W/m 9.4 C 23.3 C 5.3 km/h (1 Bft)
14.05.2008 20:00 20.8 C 44 % 1009.5 hPa 0.0 l/m 8.0 km/h (2 Bft) W 0.00 h 15 W/m 7.9 C 20.8 C 13.7 km/h (3 Bft)
14.05.2008 21:00 19.2 C 48 % 1010.2 hPa 0.0 l/m 1.7 km/h (1 Bft) W 0.00 h 0 W/m 7.8 C 19.2 C 3.8 km/h (1 Bft)
14.05.2008 22:00 18.5 C 51 % 1010.7 hPa 0.0 l/m 1.3 km/h (1 Bft) SW 0.00 h 0 W/m 8.2 C 18.5 C 3.2 km/h (1 Bft)
14.05.2008 23:00 17.9 C 53 % 1010.7 hPa 0.0 l/m 2.0 km/h (1 Bft) S-SO 0.00 h 0 W/m 8.2 C 17.9 C 4.3 km/h (1 Bft)
15.05.2008 00:00 16.0 C 62 % 1010.7 hPa 0.0 l/m 0.9 km/h (0 Bft) S-SO 0.00 h 0 W/m 8.6 C 16.0 C 2.0 km/h (1 Bft)
15.05.2008 01:00 15.4 C 65 % 1010.5 hPa 0.0 l/m 0.3 km/h (0 Bft) S 0.00 h 0 W/m 8.8 C 15.4 C 1.1 km/h (1 Bft)
15.05.2008 02:00 15.1 C 69 % 1010.2 hPa 0.0 l/m 0.4 km/h (0 Bft) O-SO 0.00 h 0 W/m 9.5 C 15.1 C 0.8 km/h (0 Bft)
15.05.2008 03:00 14.6 C 71 % 1010.1 hPa 0.0 l/m 0.7 km/h (0 Bft) O-SO 0.00 h 0 W/m 9.4 C 14.6 C 1.7 km/h (1 Bft)
15.05.2008 04:00 13.7 C 76 % 1010.1 hPa 0.0 l/m 0.0 km/h (0 Bft) N 0.00 h 0 W/m 9.5 C 13.7 C 0.2 km/h (0 Bft)
15.05.2008 05:00 13.1 C 81 % 1010.0 hPa 0.0 l/m 0.1 km/h (0 Bft) O-SO 0.00 h 6 W/m 9.9 C 13.1 C 0.6 km/h (0 Bft)
15.05.2008 06:00 13.2 C 82 % 1010.2 hPa 0.0 l/m 0.4 km/h (0 Bft) O-SO 0.02 h 33 W/m 10.2 C 13.2 C 1.2 km/h (1 Bft)
15.05.2008 07:00 14.1 C 79 % 1010.4 hPa 0.0 l/m 0.1 km/h (0 Bft) O-SO 0.00 h 96 W/m 10.5 C 14.1 C 0.9 km/h (0 Bft)
15.05.2008 08:00 15.8 C 75 % 1010.4 hPa 0.0 l/m 0.4 km/h (0 Bft) W 0.63 h 261 W/m 11.4 C 15.8 C 1.7 km/h (1 Bft)
15.05.2008 09:00 18.2 C 65 % 1010.3 hPa 0.0 l/m 1.5 km/h (1 Bft) W 1.00 h 462 W/m 11.5 C 18.2 C 3.5 km/h (1 Bft)
15.05.2008 10:00 20.1 C 55 % 1010.1 hPa 0.0 l/m 5.0 km/h (1 Bft) W-SW 1.00 h 607 W/m 10.7 C 20.1 C 9.2 km/h (2 Bft)
15.05.2008 11:00 21.4 C 51 % 1009.7 hPa 0.0 l/m 7.3 km/h (2 Bft) W 1.00 h 707 W/m 10.8 C 21.4 C 12.8 km/h (3 Bft)
15.05.2008 12:00 22.1 C 48 % 1009.3 hPa 0.0 l/m 8.8 km/h (2 Bft) W 1.00 h 739 W/m 10.6 C 22.1 C 15.4 km/h (3 Bft)
15.05.2008 13:00 22.6 C 48 % 1008.9 hPa 0.0 l/m 10.6 km/h (2 Bft) W 1.00 h 827 W/m 10.9 C 22.6 C 17.6 km/h (3 Bft)
15.05.2008 14:00 22.4 C 49 % 1008.5 hPa 0.0 l/m 10.5 km/h (2 Bft) W 1.00 h 643 W/m 11.0 C 22.4 C 16.7 km/h (3 Bft)
15.05.2008 15:00 21.6 C 51 % 1008.2 hPa 0.0 l/m 12.5 km/h (3 Bft) W 0.73 h 518 W/m 11.1 C 21.6 C 20.1 km/h (4 Bft)
15.05.2008 16:00 20.9 C 55 % 1008.2 hPa 0.0 l/m 15.3 km/h (3 Bft) W 0.55 h 374 W/m 11.4 C 20.9 C 23.7 km/h (4 Bft)
15.05.2008 17:00 17.6 C 65 % 1009.0 hPa 0.0 l/m 24.1 km/h (4 Bft) W-NW 0.00 h 120 W/m 10.9 C 17.6 C 36.0 km/h (5 Bft)
15.05.2008 18:00 14.2 C 87 % 1010.2 hPa 1.2 l/m 3.2 km/h (1 Bft) W-NW 0.00 h 17 W/m 12.0 C 14.2 C 7.3 km/h (2 Bft)
15.05.2008 19:00 13.7 C 93 % 1009.8 hPa 0.4 l/m 1.2 km/h (1 Bft) S-SO 0.00 h 14 W/m 12.6 C 13.7 C 2.6 km/h (1 Bft)
15.05.2008 20:00 13.6 C 97 % 1009.7 hPa 0.0 l/m 0.7 km/h (0 Bft) S-SO 0.00 h 8 W/m 13.1 C 13.6 C 1.8 km/h (1 Bft)
15.05.2008 21:00 13.4 C 96 % 1010.4 hPa 0.0 l/m 1.3 km/h (1 Bft) SO 0.00 h 0 W/m 12.8 C 13.4 C 2.8 km/h (1 Bft)
15.05.2008 22:00 13.1 C 98 % 1010.7 hPa 0.6 l/m 1.2 km/h (1 Bft) W 0.00 h 0 W/m 12.8 C 13.1 C 2.3 km/h (1 Bft)
15.05.2008 23:00 13.3 C 99 % 1011.1 hPa 1.2 l/m 0.3 km/h (0 Bft) NW 0.00 h 0 W/m 13.1 C 13.3 C 1.3 km/h (1 Bft)
16.05.2008 00:00 13.1 C 100 % 1010.8 hPa 0.2 l/m 0.0 km/h (0 Bft) N 0.00 h 0 W/m 13.0 C 13.1 C 0.1 km/h (0 Bft)
16.05.2008 01:00 13.0 C 100 % 1010.7 hPa 0.8 l/m 0.9 km/h (0 Bft) NW 0.00 h 0 W/m 13.0 C 13.0 C 1.9 km/h (1 Bft)
16.05.2008 02:00 13.0 C 100 % 1010.4 hPa 0.0 l/m 0.0 km/h (0 Bft) N 0.00 h 0 W/m 13.0 C 13.0 C 0.2 km/h (0 Bft)
16.05.2008 03:00 13.0 C 100 % 1010.0 hPa 0.2 l/m 0.8 km/h (0 Bft) S-SO 0.00 h 0 W/m 13.0 C 13.0 C 2.0 km/h (1 Bft)
16.05.2008 04:00 12.9 C 98 % 1010.0 hPa 0.0 l/m 0.2 km/h (0 Bft) S-SO 0.00 h 0 W/m 12.5 C 12.9 C 1.2 km/h (1 Bft)
16.05.2008 05:00 12.7 C 96 % 1010.1 hPa 0.0 l/m 0.4 km/h (0 Bft) S-SO 0.00 h 5 W/m 12.0 C 12.7 C 1.7 km/h (1 Bft)
16.05.2008 06:00 12.3 C 96 % 1010.4 hPa 0.0 l/m 0.7 km/h (0 Bft) SO 0.00 h 30 W/m 11.6 C 12.3 C 1.6 km/h (1 Bft)
16.05.2008 07:00 13.1 C 95 % 1010.4 hPa 0.0 l/m 1.0 km/h (0 Bft) O-SO 0.72 h 164 W/m 12.3 C 13.1 C 2.2 km/h (1 Bft)
16.05.2008 08:00 14.8 C 90 % 1010.2 hPa 0.0 l/m 1.6 km/h (1 Bft) S-SO 0.93 h 328 W/m 13.2 C 14.8 C 4.0 km/h (1 Bft)
16.05.2008 09:00 16.3 C 84 % 1010.2 hPa 0.0 l/m 2.5 km/h (1 Bft) S-SO 1.00 h 499 W/m 13.6 C 16.3 C 6.1 km/h (2 Bft)
16.05.2008 10:00 17.9 C 76 % 1009.9 hPa 0.0 l/m 2.2 km/h (1 Bft) S-SO 0.83 h 598 W/m 13.6 C 17.9 C 5.3 km/h (1 Bft)
16.05.2008 11:00 18.8 C 70 % 1009.5 hPa 0.0 l/m 2.2 km/h (1 Bft) W-NW 0.82 h 699 W/m 13.2 C 18.8 C 4.4 km/h (1 Bft)
16.05.2008 12:00 20.5 C 61 % 1008.9 hPa 0.0 l/m 2.4 km/h (1 Bft) W-NW 0.95 h 807 W/m 12.6 C 20.5 C 5.0 km/h (1 Bft)
16.05.2008 13:00 21.4 C 58 % 1008.3 hPa 0.0 l/m 2.2 km/h (1 Bft) W 1.00 h 769 W/m 12.8 C 21.4 C 4.5 km/h (1 Bft)
16.05.2008 14:00 22.3 C 53 % 1007.5 hPa 0.0 l/m 3.0 km/h (1 Bft) S-SO 0.92 h 751 W/m 12.2 C 22.3 C 6.0 km/h (2 Bft)
16.05.2008 15:00 22.7 C 48 % 1006.6 hPa 0.0 l/m 3.0 km/h (1 Bft) SO 0.78 h 585 W/m 10.9 C 22.7 C 6.0 km/h (2 Bft)
16.05.2008 16:00 23.2 C 46 % 1006.0 hPa 0.0 l/m 2.7 km/h (1 Bft) W-NW 0.82 h 466 W/m 11.0 C 23.2 C 5.2 km/h (1 Bft)
16.05.2008 17:00 22.7 C 47 % 1005.6 hPa 0.0 l/m 3.2 km/h (1 Bft) W-NW 0.62 h 330 W/m 10.9 C 22.7 C 5.3 km/h (1 Bft)
16.05.2008 18:00 21.9 C 51 % 1005.1 hPa 0.0 l/m 2.9 km/h (1 Bft) W-NW 0.22 h 197 W/m 11.3 C 21.9 C 5.4 km/h (1 Bft)
16.05.2008 19:00 20.6 C 57 % 1004.9 hPa 0.0 l/m 4.0 km/h (1 Bft) N-NW 0.05 h 84 W/m 11.7 C 20.6 C 7.0 km/h (2 Bft)
16.05.2008 20:00 19.2 C 59 % 1004.9 hPa 0.0 l/m 0.8 km/h (0 Bft) N-NW 0.00 h 22 W/m 11.0 C 19.2 C 1.9 km/h (1 Bft)
16.05.2008 21:00 17.9 C 67 % 1005.2 hPa 0.0 l/m 0.1 km/h (0 Bft) N-NW 0.00 h 0 W/m 11.7 C 17.9 C 0.7 km/h (0 Bft)
16.05.2008 22:00 17.1 C 72 % 1006.3 hPa 0.0 l/m 4.8 km/h (1 Bft) W-NW 0.00 h 0 W/m 11.9 C 17.1 C 8.8 km/h (2 Bft)
16.05.2008 23:00 15.5 C 86 % 1006.9 hPa 0.2 l/m 2.2 km/h (1 Bft) W 0.00 h 0 W/m 13.1 C 15.5 C 4.6 km/h (1 Bft)
17.05.2008 00:00 14.9 C 90 % 1007.3 hPa 0.2 l/m 4.0 km/h (1 Bft) W-SW 0.00 h 0 W/m 13.3 C 14.9 C 7.6 km/h (2 Bft)
17.05.2008 01:00 14.1 C 93 % 1007.5 hPa 1.4 l/m 2.4 km/h (1 Bft) W-NW 0.00 h 0 W/m 13.0 C 14.1 C 5.0 km/h (1 Bft)
17.05.2008 02:00 13.8 C 95 % 1007.1 hPa 0.4 l/m 1.4 km/h (1 Bft) SO 0.00 h 0 W/m 13.1 C 13.8 C 3.0 km/h (1 Bft)
17.05.2008 03:00 13.7 C 98 % 1006.6 hPa 0.0 l/m 0.7 km/h (0 Bft) S-SO 0.00 h 0 W/m 13.3 C 13.7 C 1.8 km/h (1 Bft)
17.05.2008 04:00 13.6 C 98 % 1006.6 hPa 0.0 l/m 0.3 km/h (0 Bft) S-SO 0.00 h 0 W/m 13.2 C 13.6 C 1.3 km/h (1 Bft)
17.05.2008 05:00 12.9 C 97 % 1006.5 hPa 0.0 l/m 0.1 km/h (0 Bft) S-SO 0.00 h 6 W/m 12.5 C 12.9 C 0.7 km/h (0 Bft)
17.05.2008 06:00 12.4 C 98 % 1006.7 hPa 0.0 l/m 1.3 km/h (1 Bft) S-SO 0.00 h 29 W/m 12.1 C 12.4 C 2.5 km/h (1 Bft)
17.05.2008 07:00 13.1 C 99 % 1006.8 hPa 0.0 l/m 0.0 km/h (0 Bft) S-SO 0.00 h 71 W/m 13.0 C 13.1 C 0.4 km/h (0 Bft)
17.05.2008 08:00 14.4 C 97 % 1007.0 hPa 0.0 l/m 0.5 km/h (0 Bft) S-SO 0.78 h 286 W/m 13.9 C 14.4 C 2.0 km/h (1 Bft)
17.05.2008 09:00 15.6 C 90 % 1007.0 hPa 0.0 l/m 1.3 km/h (1 Bft) W-SW 0.52 h 352 W/m 13.9 C 15.6 C 3.1 km/h (1 Bft)
17.05.2008 10:00 16.5 C 84 % 1006.7 hPa 0.0 l/m 1.7 km/h (1 Bft) N-NW 0.18 h 298 W/m 13.8 C 16.5 C 3.6 km/h (1 Bft)
17.05.2008 11:00 16.5 C 81 % 1006.9 hPa 0.0 l/m 4.0 km/h (1 Bft) W-NW 0.08 h 263 W/m 13.1 C 16.5 C 6.6 km/h (2 Bft)
17.05.2008 12:00 17.3 C 73 % 1006.8 hPa 0.0 l/m 4.3 km/h (1 Bft) W-SW 0.03 h 298 W/m 12.5 C 17.3 C 7.3 km/h (2 Bft)
17.05.2008 13:00 17.1 C 75 % 1006.8 hPa 0.0 l/m 8.0 km/h (2 Bft) W 0.15 h 366 W/m 12.7 C 17.1 C 12.6 km/h (3 Bft)
17.05.2008 14:00 17.8 C 71 % 1006.3 hPa 0.0 l/m 6.7 km/h (2 Bft) W 0.03 h 333 W/m 12.5 C 17.8 C 11.0 km/h (2 Bft)
17.05.2008 15:00 17.2 C 74 % 1006.3 hPa 0.0 l/m 4.3 km/h (1 Bft) W 0.00 h 222 W/m 12.4 C 17.2 C 7.8 km/h (2 Bft)
17.05.2008 16:00 16.4 C 77 % 1006.3 hPa 0.2 l/m 8.6 km/h (2 Bft) W 0.00 h 127 W/m 12.3 C 16.4 C 15.0 km/h (3 Bft)
17.05.2008 17:00 14.7 C 87 % 1006.9 hPa 0.8 l/m 7.4 km/h (2 Bft) W 0.00 h 61 W/m 12.5 C 14.7 C 12.3 km/h (3 Bft)
17.05.2008 18:00 14.0 C 94 % 1007.1 hPa 0.0 l/m 2.5 km/h (1 Bft) W 0.00 h 48 W/m 13.0 C 14.0 C 4.6 km/h (1 Bft)
17.05.2008 19:00 13.5 C 96 % 1007.2 hPa 1.6 l/m 2.7 km/h (1 Bft) W 0.00 h 17 W/m 12.8 C 13.5 C 4.5 km/h (1 Bft)
17.05.2008 20:00 12.9 C 96 % 1007.6 hPa 0.6 l/m 0.8 km/h (0 Bft) S-SO 0.00 h 6 W/m 12.3 C 12.9 C 2.0 km/h (1 Bft)
17.05.2008 21:00 12.8 C 96 % 1007.9 hPa 0.4 l/m 0.4 km/h (0 Bft) SO 0.00 h 0 W/m 12.2 C 12.8 C 0.8 km/h (0 Bft)
17.05.2008 22:00 12.8 C 97 % 1008.2 hPa 0.4 l/m 0.3 km/h (0 Bft) O 0.00 h 0 W/m 12.3 C 12.8 C 1.0 km/h (0 Bft)
17.05.2008 23:00 12.7 C 97 % 1008.2 hPa 0.2 l/m 0.0 km/h (0 Bft) N 0.00 h 0 W/m 12.3 C 12.7 C 0.3 km/h (0 Bft)
18.05.2008 00:00 12.7 C 97 % 1008.1 hPa 0.0 l/m 0.2 km/h (0 Bft) O-SO 0.00 h 0 W/m 12.3 C 12.7 C 0.7 km/h (0 Bft)
18.05.2008 01:00 12.5 C 98 % 1007.9 hPa 0.0 l/m 0.1 km/h (0 Bft) O-NO 0.00 h 0 W/m 12.2 C 12.5 C 0.5 km/h (0 Bft)
18.05.2008 02:00 12.3 C 98 % 1007.6 hPa 0.0 l/m 0.2 km/h (0 Bft) O-NO 0.00 h 0 W/m 12.0 C 12.3 C 0.4 km/h (0 Bft)
18.05.2008 03:00 12.0 C 99 % 1007.4 hPa 0.0 l/m 0.8 km/h (0 Bft) O-NO 0.00 h 0 W/m 11.8 C 12.0 C 1.8 km/h (1 Bft)
18.05.2008 04:00 11.8 C 100 % 1007.2 hPa 0.0 l/m 1.1 km/h (1 Bft) O-NO 0.00 h 0 W/m 11.8 C 11.8 C 2.3 km/h (1 Bft)
18.05.2008 05:00 11.8 C 100 % 1007.2 hPa 0.0 l/m 1.3 km/h (1 Bft) O 0.00 h 5 W/m 11.8 C 11.8 C 2.6 km/h (1 Bft)
18.05.2008 06:00 11.8 C 100 % 1007.2 hPa 0.0 l/m 1.4 km/h (1 Bft) O 0.00 h 23 W/m 11.7 C 11.8 C 2.7 km/h (1 Bft)
18.05.2008 07:00 12.2 C 99 % 1007.3 hPa 0.0 l/m 0.4 km/h (0 Bft) O-SO 0.00 h 73 W/m 12.1 C 12.2 C 1.3 km/h (1 Bft)
18.05.2008 08:00 13.1 C 97 % 1007.3 hPa 0.0 l/m 0.3 km/h (0 Bft) O-SO 0.05 h 190 W/m 12.6 C 13.1 C 1.3 km/h (1 Bft)
18.05.2008 09:00 14.2 C 92 % 1007.3 hPa 0.0 l/m 0.6 km/h (0 Bft) SW 0.13 h 288 W/m 12.9 C 14.2 C 2.2 km/h (1 Bft)
18.05.2008 10:00 14.9 C 86 % 1007.1 hPa 0.0 l/m 1.2 km/h (1 Bft) W-NW 0.55 h 383 W/m 12.7 C 14.9 C 3.1 km/h (1 Bft)
18.05.2008 11:00 16.0 C 78 % 1006.7 hPa 0.0 l/m 2.5 km/h (1 Bft) O-SO 0.43 h 523 W/m 12.2 C 16.0 C 4.7 km/h (1 Bft)
18.05.2008 12:00 16.6 C 73 % 1006.4 hPa 0.0 l/m 3.8 km/h (1 Bft) N-NO 0.40 h 431 W/m 11.7 C 16.6 C 7.7 km/h (2 Bft)
18.05.2008 13:00 14.5 C 79 % 1006.6 hPa 0.2 l/m 2.0 km/h (1 Bft) O 0.00 h 160 W/m 10.8 C 14.5 C 4.5 km/h (1 Bft)
18.05.2008 14:00 14.5 C 82 % 1006.7 hPa 0.0 l/m 0.5 km/h (0 Bft) N-NO 0.00 h 270 W/m 11.5 C 14.5 C 1.6 km/h (1 Bft)
18.05.2008 15:00 15.2 C 77 % 1006.6 hPa 0.0 l/m 5.5 km/h (1 Bft) W-NW 0.07 h 316 W/m 11.3 C 15.2 C 8.5 km/h (2 Bft)
18.05.2008 16:00 14.3 C 82 % 1006.7 hPa 0.0 l/m 4.8 km/h (1 Bft) W 0.00 h 187 W/m 11.2 C 14.3 C 8.0 km/h (2 Bft)
18.05.2008 17:00 14.3 C 84 % 1006.9 hPa 0.0 l/m 1.1 km/h (0 Bft) W-SW 0.00 h 151 W/m 11.7 C 14.3 C 2.9 km/h (1 Bft)
18.05.2008 18:00 13.9 C 90 % 1007.1 hPa 0.0 l/m 0.3 km/h (0 Bft) S 0.00 h 98 W/m 12.2 C 13.9 C 1.5 km/h (1 Bft)
18.05.2008 19:00 13.4 C 89 % 1007.4 hPa 0.2 l/m 0.1 km/h (0 Bft) S-SW 0.00 h 42 W/m 11.6 C 13.4 C 0.9 km/h (0 Bft)
18.05.2008 20:00 12.7 C 90 % 1007.9 hPa 0.2 l/m 0.2 km/h (0 Bft) S-SW 0.00 h 24 W/m 11.2 C 12.7 C 0.8 km/h (0 Bft)
18.05.2008 21:00 12.2 C 94 % 1008.3 hPa 0.0 l/m 0.4 km/h (0 Bft) S-SW 0.00 h 0 W/m 11.3 C 12.2 C 1.7 km/h (1 Bft)
18.05.2008 22:00 11.9 C 96 % 1008.8 hPa 0.6 l/m 1.4 km/h (1 Bft) S 0.00 h 0 W/m 11.3 C 11.9 C 3.1 km/h (1 Bft)
18.05.2008 23:00 11.7 C 98 % 1008.7 hPa 0.4 l/m 0.5 km/h (0 Bft) S-SO 0.00 h 0 W/m 11.3 C 11.7 C 1.2 km/h (1 Bft)
Min-Datum _ 12.05.08 13.05.08 16.05.08 - 12.05.08 - - - 13.05.08 12.05.08 12.05.08
_ Min-Zeit 06:25 16:24 19:30 - 00:20 - - - 16:39 06:25 00:51
Minimum _ 6.8 C 21 % 1004.8 hPa - 0.0 km/h (0 Bft) - - - 1.3 C 6.8 C 0.0 km/h (0 Bft)
Max-Datum _ 14.05.08 15.05.08 12.05.08 17.05.08 15.05.08 - 12.05.08 18.05.08 17.05.08 14.05.08 15.05.08
_ Max-Zeit 16:40 23:44 08:15 19:04 17:16 - 06:05 12:11 09:54 16:39 17:29
Maximum _ 26.4 C 100 % 1016.6 hPa 1.6 l/m 34.8 km/h
W-NW (5 Bft)
- 0.02 h 951 W/m 14.6 C 26.4 C 46.9 km/h
W-NW (6 Bft)
Durchschnitt _ 16.1 C 72 % 1010.0 hPa #12.6 l/m 2.4 km/h (1 Bft) O-SO #55:15 h 350 W/m 10.1 C 16.1 C 4.6 km/h (1 Bft)
© Kaiko 2008